createdAt,value
2024-01-29T00:00:54.911Z,3.30
2024-01-29T00:03:22.990Z,4.35
2024-01-29T00:05:50.887Z,5.47
2024-01-29T00:08:19.304Z,2.60
2024-01-29T00:10:47.663Z,4.43
2024-01-29T00:13:15.711Z,5.07
2024-01-29T00:15:43.608Z,4.50
2024-01-29T00:18:12.840Z,5.82
2024-01-29T00:20:40.713Z,5.75
2024-01-29T00:23:08.592Z,4.22
2024-01-29T00:25:36.469Z,5.90
2024-01-29T00:28:04.803Z,3.65
2024-01-29T00:30:32.940Z,3.97
2024-01-29T00:33:00.984Z,4.32
2024-01-29T00:35:30.293Z,4.20
2024-01-29T00:37:58.139Z,7.18
2024-01-29T00:40:26.721Z,3.47
2024-01-29T00:42:54.593Z,3.40
2024-01-29T00:45:22.657Z,5.65
2024-01-29T00:47:50.584Z,5.93
2024-01-29T00:50:18.433Z,3.67
2024-01-29T00:52:47.609Z,2.53
2024-01-29T00:55:15.624Z,4.30
2024-01-29T00:57:43.542Z,4.40
2024-01-29T01:00:12.225Z,2.85
2024-01-29T01:02:40.114Z,5.82
2024-01-29T01:05:08.988Z,4.00
2024-01-29T01:07:37.049Z,4.53
2024-01-29T01:10:07.292Z,4.70
2024-01-29T01:12:35.190Z,6.25
2024-01-29T01:15:03.023Z,4.68
2024-01-29T01:17:30.907Z,5.50
2024-01-29T01:19:58.891Z,3.97
2024-01-29T01:22:26.802Z,5.40
2024-01-29T01:24:54.710Z,5.18
2024-01-29T01:27:23.960Z,5.97
2024-01-29T01:29:52.050Z,5.43
2024-01-29T01:32:19.931Z,6.68
2024-01-29T01:34:47.796Z,3.25
2024-01-29T01:37:15.671Z,5.53
2024-01-29T01:39:43.527Z,4.03
2024-01-29T01:42:11.458Z,4.18
2024-01-29T01:44:40.649Z,4.47
2024-01-29T01:47:08.579Z,4.97
2024-01-29T01:49:36.612Z,4.07
2024-01-29T01:52:04.958Z,5.20
2024-01-29T01:54:32.926Z,6.30
2024-01-29T01:57:00.805Z,4.57
2024-01-29T01:59:28.663Z,2.92
2024-01-29T02:01:59.431Z,5.55
2024-01-29T02:04:27.498Z,3.30
2024-01-29T02:06:55.688Z,5.32
2024-01-29T02:09:23.772Z,5.10
2024-01-29T02:11:51.663Z,3.08
2024-01-29T02:14:19.616Z,2.85
2024-01-29T02:16:47.478Z,8.20
2024-01-29T02:19:18.042Z,7.75
2024-01-29T02:21:46.348Z,4.72
2024-01-29T02:24:15.670Z,5.90
2024-01-29T02:26:47.385Z,3.38
2024-01-29T02:29:15.293Z,4.40
2024-01-29T02:31:43.149Z,6.47
2024-01-29T02:34:11.613Z,4.10
2024-01-29T02:36:39.670Z,6.10
2024-01-29T02:39:09.211Z,5.53
2024-01-29T02:41:38.401Z,5.53
2024-01-29T02:44:07.012Z,5.43
2024-01-29T02:46:34.860Z,3.78
2024-01-29T02:49:02.885Z,4.10
2024-01-29T02:51:30.884Z,3.55
2024-01-29T02:53:58.852Z,3.90
2024-01-29T02:56:26.720Z,5.25
2024-01-29T02:58:56.044Z,5.15
2024-01-29T03:01:24.113Z,4.53
2024-01-29T03:03:52.066Z,4.00
2024-01-29T03:06:19.989Z,4.75
2024-01-29T03:08:48.025Z,5.13
2024-01-29T03:11:15.959Z,5.05
2024-01-29T03:13:45.109Z,5.55
2024-01-29T03:16:14.290Z,3.22
2024-01-29T03:18:42.365Z,5.90
2024-01-29T03:21:10.667Z,5.57
2024-01-29T03:23:38.561Z,6.05
2024-01-29T03:26:06.374Z,6.97
2024-01-29T03:28:34.157Z,5.68
2024-01-29T03:31:02.044Z,8.98
2024-01-29T03:33:31.452Z,4.00
2024-01-29T03:35:59.327Z,4.35
2024-01-29T03:38:27.201Z,4.32
2024-01-29T03:40:55.000Z,7.28
2024-01-29T03:43:23.169Z,6.85
2024-01-29T03:45:51.029Z,7.68
2024-01-29T03:48:18.951Z,3.75
2024-01-29T03:50:48.154Z,7.47
2024-01-29T03:53:16.001Z,6.15
2024-01-29T03:55:44.035Z,5.68
2024-01-29T03:58:11.949Z,6.07
2024-01-29T04:00:40.697Z,4.85
2024-01-29T04:03:08.793Z,3.78
2024-01-29T04:05:36.742Z,5.75
2024-01-29T04:08:06.968Z,7.82
2024-01-29T04:10:34.813Z,6.30
2024-01-29T04:13:02.744Z,4.03
2024-01-29T04:15:30.980Z,7.38
2024-01-29T04:17:58.959Z,8.07
2024-01-29T04:20:26.946Z,6.57
2024-01-29T04:22:54.813Z,4.63
2024-01-29T04:25:24.171Z,4.47
2024-01-29T04:27:52.598Z,5.53
2024-01-29T04:30:20.569Z,6.68
2024-01-29T04:32:48.423Z,5.68
2024-01-29T04:35:16.503Z,4.80
2024-01-29T04:37:44.417Z,3.80
2024-01-29T04:40:14.331Z,7.57
2024-01-29T04:42:43.606Z,8.23
2024-01-29T04:45:11.789Z,6.32
2024-01-29T04:47:39.722Z,8.50
2024-01-29T04:50:08.629Z,6.72
2024-01-29T04:52:36.533Z,9.82
2024-01-29T04:55:05.969Z,5.40
2024-01-29T04:57:34.036Z,5.18
2024-01-29T05:00:04.623Z,5.57
2024-01-29T05:02:32.520Z,6.00
2024-01-29T05:05:00.797Z,4.57
2024-01-29T05:07:28.648Z,3.95
2024-01-29T05:09:56.786Z,6.30
2024-01-29T05:12:24.967Z,4.60
2024-01-29T05:14:52.851Z,7.50
2024-01-29T05:17:22.108Z,4.53
2024-01-29T05:19:50.027Z,3.67
2024-01-29T05:22:18.012Z,7.70
2024-01-29T05:24:45.957Z,3.65
2024-01-29T05:27:13.790Z,5.72
2024-01-29T05:29:41.644Z,3.70
2024-01-29T05:32:08.508Z,6.28
2024-01-29T05:34:37.774Z,4.25
2024-01-29T05:37:05.967Z,9.57
2024-01-29T05:39:33.937Z,6.55
2024-01-29T05:42:01.814Z,7.47
2024-01-29T05:44:29.668Z,9.20
2024-01-29T05:46:57.512Z,9.65
2024-01-29T05:49:25.582Z,9.15
2024-01-29T05:51:54.808Z,6.85
2024-01-29T05:54:22.737Z,10.48
2024-01-29T05:56:51.859Z,10.02
2024-01-29T05:59:19.870Z,5.45
2024-01-29T06:01:48.111Z,6.88
2024-01-29T06:04:16.249Z,5.63
2024-01-29T06:06:44.598Z,7.70
2024-01-29T06:09:14.021Z,6.95
2024-01-29T06:11:41.888Z,5.50
2024-01-29T06:14:09.725Z,7.15
2024-01-29T06:16:37.553Z,5.25
2024-01-29T06:19:05.613Z,9.32
2024-01-29T06:21:33.563Z,5.93
2024-01-29T06:24:01.410Z,8.13
2024-01-29T06:26:30.656Z,7.72
2024-01-29T06:28:59.684Z,6.95
2024-01-29T06:31:27.698Z,10.13
2024-01-29T06:33:58.184Z,7.50
2024-01-29T06:36:26.510Z,6.07
2024-01-29T06:38:54.406Z,5.60
2024-01-29T06:41:22.338Z,8.15
2024-01-29T06:43:51.660Z,6.70
2024-01-29T06:46:19.519Z,7.38
2024-01-29T06:48:47.413Z,7.00
2024-01-29T06:51:16.372Z,8.02
2024-01-29T06:53:44.348Z,7.72
2024-01-29T06:56:12.285Z,10.48
2024-01-29T06:58:40.155Z,7.53
2024-01-29T07:01:09.539Z,10.00
2024-01-29T07:03:37.652Z,5.97
2024-01-29T07:06:06.178Z,8.15
2024-01-29T07:08:34.094Z,8.93
2024-01-29T07:11:01.960Z,8.07
2024-01-29T07:13:29.832Z,11.18
2024-01-29T07:15:57.709Z,9.98
2024-01-29T07:18:27.047Z,6.70
2024-01-29T07:20:54.964Z,7.68
2024-01-29T07:23:23.398Z,13.23
2024-01-29T07:25:51.255Z,9.43
2024-01-29T07:28:19.175Z,9.45
2024-01-29T07:30:47.062Z,7.88
2024-01-29T07:33:15.116Z,10.13
2024-01-29T07:35:44.437Z,7.55
2024-01-29T07:38:12.252Z,7.72
2024-01-29T07:40:40.080Z,7.72
2024-01-29T07:43:08.028Z,6.68
2024-01-29T07:45:36.072Z,7.97
2024-01-29T07:48:06.054Z,7.38
2024-01-29T07:50:34.010Z,9.35
2024-01-29T07:53:03.865Z,9.48
2024-01-29T07:55:31.840Z,7.82
2024-01-29T07:57:59.850Z,10.60
2024-01-29T08:00:27.853Z,9.95
2024-01-29T08:02:55.754Z,8.40
2024-01-29T08:05:23.818Z,7.70
2024-01-29T08:07:52.156Z,7.20
2024-01-29T08:10:21.312Z,10.38
2024-01-29T08:12:49.193Z,9.32
2024-01-29T08:15:17.339Z,69.97
2024-01-29T08:17:45.256Z,94.28
2024-01-29T08:20:13.564Z,184.82
2024-01-29T08:22:41.564Z,35.08
2024-01-29T08:25:09.981Z,13.90
2024-01-29T08:27:39.249Z,10.85
2024-01-29T08:30:08.432Z,11.88
2024-01-29T08:32:36.278Z,12.70
2024-01-29T08:35:04.383Z,9.02
2024-01-29T08:37:32.220Z,7.05
2024-01-29T08:40:00.184Z,7.72
2024-01-29T08:42:28.152Z,9.85
2024-01-29T08:44:57.589Z,8.23
2024-01-29T08:47:26.066Z,10.88
2024-01-29T08:49:54.098Z,6.03
2024-01-29T08:52:21.937Z,8.98
2024-01-29T08:54:50.243Z,8.20
2024-01-29T08:57:18.199Z,11.32
2024-01-29T08:59:46.044Z,7.63
2024-01-29T09:02:15.218Z,10.48
2024-01-29T09:04:43.635Z,8.57
2024-01-29T09:07:11.766Z,7.40
2024-01-29T09:09:39.663Z,9.35
2024-01-29T09:12:07.948Z,8.10
2024-01-29T09:14:35.741Z,7.22
2024-01-29T09:17:03.522Z,16.35
2024-01-29T09:19:32.793Z,8.85
2024-01-29T09:22:00.725Z,15.02
2024-01-29T09:24:30.072Z,15.20
2024-01-29T09:26:59.152Z,13.60
2024-01-29T09:29:27.006Z,16.23
2024-01-29T09:31:54.877Z,17.77
2024-01-29T09:34:25.970Z,18.23
2024-01-29T09:36:55.458Z,15.13
2024-01-29T09:39:25.763Z,15.00
2024-01-29T09:41:54.153Z,12.90
2024-01-29T09:44:21.989Z,13.70
2024-01-29T09:46:49.806Z,14.63
2024-01-29T09:49:17.943Z,17.00
2024-01-29T09:51:45.853Z,18.45
2024-01-29T09:54:15.034Z,13.27
2024-01-29T09:56:42.902Z,17.98
2024-01-29T09:59:11.482Z,17.33
2024-01-29T10:01:39.432Z,19.10
2024-01-29T10:04:07.605Z,16.42
2024-01-29T10:06:35.565Z,14.15
2024-01-29T10:09:05.686Z,19.48
2024-01-29T10:11:34.911Z,15.30
2024-01-29T10:14:03.488Z,15.23
2024-01-29T10:16:31.697Z,17.42
2024-01-29T10:18:59.959Z,15.02
2024-01-29T10:21:28.158Z,15.35
2024-01-29T10:23:56.682Z,15.88
2024-01-29T10:26:24.632Z,16.27
2024-01-29T10:29:03.497Z,12.95
2024-01-29T10:31:31.449Z,16.25
2024-01-29T10:33:59.755Z,17.25
2024-01-29T10:36:30.444Z,15.90
2024-01-29T10:39:00.678Z,15.20
2024-01-29T10:41:28.625Z,15.88
2024-01-29T10:43:56.562Z,15.63
2024-01-29T10:46:26.865Z,19.30
2024-01-29T10:48:55.103Z,15.30
2024-01-29T10:51:23.164Z,17.02
2024-01-29T10:53:51.002Z,18.63
2024-01-29T10:56:19.434Z,14.27
2024-01-29T10:58:47.264Z,15.52
2024-01-29T11:01:15.138Z,19.30
2024-01-29T11:03:44.375Z,16.95
2024-01-29T11:06:15.834Z,16.17
2024-01-29T11:08:44.608Z,14.25
2024-01-29T11:11:12.453Z,16.30
2024-01-29T11:13:40.289Z,14.70
2024-01-29T11:16:08.651Z,15.82
2024-01-29T11:18:37.051Z,17.15
2024-01-29T11:21:10.886Z,12.85
2024-01-29T11:23:43.391Z,14.50
2024-01-29T11:26:13.276Z,15.88
2024-01-29T11:28:41.175Z,14.68
2024-01-29T11:31:13.220Z,14.73
2024-01-29T11:33:41.680Z,12.75
2024-01-29T11:36:13.881Z,14.70
2024-01-29T11:38:41.804Z,16.77
2024-01-29T11:41:09.633Z,18.10
2024-01-29T11:43:37.540Z,15.10
2024-01-29T11:46:05.616Z,15.18
2024-01-29T11:48:33.661Z,15.35
2024-01-29T11:51:01.903Z,16.52
2024-01-29T11:53:31.091Z,18.40
2024-01-29T11:55:58.953Z,16.45
2024-01-29T11:58:28.136Z,14.50
2024-01-29T12:00:56.135Z,15.98
2024-01-29T12:03:24.664Z,16.60
2024-01-29T12:05:53.290Z,17.65
2024-01-29T12:08:22.023Z,15.45
2024-01-29T12:10:51.482Z,14.88
2024-01-29T12:13:20.171Z,12.57
2024-01-29T12:15:48.528Z,17.70
2024-01-29T12:18:18.287Z,15.23
2024-01-29T12:20:48.189Z,14.70
2024-01-29T12:23:17.607Z,16.95
2024-01-29T12:25:46.005Z,15.32
2024-01-29T12:28:16.910Z,15.57
2024-01-29T12:30:45.296Z,15.10
2024-01-29T12:33:19.111Z,14.15
2024-01-29T12:35:46.986Z,16.17
2024-01-29T12:38:15.266Z,14.32
2024-01-29T12:40:45.073Z,15.40
2024-01-29T12:43:16.058Z,11.85
2024-01-29T12:45:45.403Z,14.43
2024-01-29T12:48:13.887Z,18.65
2024-01-29T12:50:42.338Z,15.60
2024-01-29T12:53:11.003Z,15.20
2024-01-29T12:55:38.809Z,14.70
2024-01-29T12:58:07.500Z,13.15
2024-01-29T13:00:38.595Z,13.85
2024-01-29T13:03:06.770Z,15.35
2024-01-29T13:05:34.681Z,15.63
2024-01-29T13:08:02.745Z,16.30
2024-01-29T13:10:31.314Z,14.35
2024-01-29T13:12:59.363Z,15.45
2024-01-29T13:15:27.300Z,16.63
2024-01-29T13:17:56.472Z,15.40
2024-01-29T13:20:24.354Z,12.32
2024-01-29T13:22:52.484Z,13.90
2024-01-29T13:25:20.329Z,16.67
2024-01-29T13:27:49.091Z,14.43
2024-01-29T13:30:17.133Z,13.93
2024-01-29T13:32:44.982Z,15.20
2024-01-29T13:35:14.402Z,14.40
2024-01-29T13:37:42.275Z,14.98
2024-01-29T13:40:11.008Z,13.70
2024-01-29T13:42:38.962Z,15.13
2024-01-29T13:45:08.631Z,13.05
2024-01-29T13:47:38.112Z,15.52
2024-01-29T13:50:07.812Z,13.27
2024-01-29T13:52:37.304Z,11.20
2024-01-29T13:55:05.597Z,12.52
2024-01-29T13:57:33.479Z,15.02
2024-01-29T14:00:04.394Z,12.40
2024-01-29T14:02:35.873Z,12.95
2024-01-29T14:05:05.680Z,13.80
2024-01-29T14:07:34.249Z,10.95
2024-01-29T14:10:03.859Z,12.77
2024-01-29T14:12:31.856Z,12.98
2024-01-29T14:15:03.295Z,17.52
2024-01-29T14:17:31.764Z,16.17
2024-01-29T14:20:00.778Z,13.02
2024-01-29T14:22:29.413Z,12.85
2024-01-29T14:24:57.574Z,15.35
2024-01-29T14:27:27.037Z,19.48
2024-01-29T14:29:56.039Z,14.45
2024-01-29T14:32:25.015Z,15.45
2024-01-29T14:34:53.078Z,17.02
2024-01-29T14:37:21.172Z,16.73
2024-01-29T14:39:49.138Z,14.25
2024-01-29T14:42:17.000Z,14.63
2024-01-29T14:44:46.151Z,15.57
2024-01-29T14:47:17.355Z,17.98
2024-01-29T14:49:45.798Z,17.17
2024-01-29T14:52:14.264Z,16.63
2024-01-29T14:54:42.235Z,16.25
2024-01-29T14:57:10.090Z,15.00
2024-01-29T14:59:38.177Z,16.10
2024-01-29T15:02:08.425Z,16.67
2024-01-29T15:04:36.649Z,15.68
2024-01-29T15:07:05.061Z,17.20
2024-01-29T15:09:33.934Z,15.35
2024-01-29T15:12:01.852Z,17.25
2024-01-29T15:14:29.708Z,15.93
2024-01-29T15:17:02.097Z,12.93
2024-01-29T15:19:31.580Z,17.90
2024-01-29T15:21:59.567Z,17.42
2024-01-29T15:24:27.505Z,25.20
2024-01-29T15:26:55.428Z,14.88
2024-01-29T15:29:23.413Z,16.73
2024-01-29T15:31:51.374Z,24.73
2024-01-29T15:34:20.327Z,14.93
2024-01-29T15:36:49.875Z,17.05
2024-01-29T15:39:18.887Z,14.45
2024-01-29T15:41:46.822Z,12.82
2024-01-29T15:44:14.938Z,18.88
2024-01-29T15:46:44.118Z,16.40
2024-01-29T15:49:12.129Z,18.75
2024-01-29T15:51:40.717Z,13.57
2024-01-29T15:54:10.004Z,14.45
2024-01-29T15:56:37.864Z,20.75
2024-01-29T15:59:06.004Z,16.73
2024-01-29T16:01:34.021Z,16.38
2024-01-29T16:04:02.578Z,13.68
2024-01-29T16:06:30.658Z,17.17
2024-01-29T16:08:58.614Z,16.17
2024-01-29T16:11:27.809Z,18.98
2024-01-29T16:13:55.652Z,16.48
2024-01-29T16:16:23.549Z,18.77
2024-01-29T16:18:51.543Z,16.83
2024-01-29T16:21:22.771Z,15.55
2024-01-29T16:23:51.515Z,17.13
2024-01-29T16:26:20.224Z,22.20
2024-01-29T16:28:49.449Z,11.75
2024-01-29T16:31:17.433Z,17.00
2024-01-29T16:33:45.619Z,15.38
2024-01-29T16:36:20.600Z,12.00
2024-01-29T16:38:48.788Z,16.30
2024-01-29T16:41:22.026Z,12.82
2024-01-29T16:43:52.200Z,13.45
2024-01-29T16:46:20.570Z,14.55
2024-01-29T16:48:48.714Z,16.70
2024-01-29T16:51:22.311Z,14.00
2024-01-29T16:53:50.257Z,13.85
2024-01-29T16:56:24.080Z,15.00
2024-01-29T16:58:53.340Z,13.10
2024-01-29T17:01:21.285Z,14.93
2024-01-29T17:03:49.404Z,13.77
2024-01-29T17:06:17.453Z,13.82
2024-01-29T17:08:45.429Z,15.45
2024-01-29T17:11:14.501Z,15.02
2024-01-29T17:13:43.180Z,17.63
2024-01-29T17:16:12.499Z,15.90
2024-01-29T17:18:40.608Z,13.98
2024-01-29T17:21:12.366Z,12.60
2024-01-29T17:23:40.697Z,19.75
2024-01-29T17:26:08.684Z,16.88
2024-01-29T17:28:36.589Z,14.18
2024-01-29T17:31:05.845Z,16.58
2024-01-29T17:33:36.057Z,15.10
2024-01-29T17:36:04.161Z,13.25
2024-01-29T17:38:32.070Z,19.75
2024-01-29T17:40:59.938Z,16.85
2024-01-29T17:43:28.358Z,16.60
2024-01-29T17:45:56.732Z,13.52
2024-01-29T17:48:26.255Z,13.95
2024-01-29T17:50:55.683Z,16.90
2024-01-29T17:53:26.215Z,18.90
2024-01-29T17:55:55.029Z,17.58
2024-01-29T17:58:22.955Z,16.48
2024-01-29T18:00:50.905Z,15.30
2024-01-29T18:03:18.930Z,15.43
2024-01-29T18:05:47.439Z,15.23
2024-01-29T18:08:16.729Z,14.48
2024-01-29T18:10:44.666Z,15.20
2024-01-29T18:13:12.748Z,16.90
2024-01-29T18:15:40.691Z,14.18
2024-01-29T18:18:08.801Z,14.77
2024-01-29T18:20:36.746Z,15.30
2024-01-29T18:23:04.839Z,15.73
2024-01-29T18:25:35.441Z,20.48
2024-01-29T18:28:05.411Z,21.23
2024-01-29T18:30:33.318Z,17.65
2024-01-29T18:33:01.237Z,14.25
2024-01-29T18:35:29.188Z,17.25
2024-01-29T18:37:57.011Z,16.08
2024-01-29T18:40:25.033Z,16.67
2024-01-29T18:42:54.947Z,17.05
2024-01-29T18:45:22.998Z,16.35
2024-01-29T18:47:51.447Z,21.00
2024-01-29T18:50:19.389Z,16.55
2024-01-29T18:52:47.301Z,17.50
2024-01-29T18:55:16.352Z,17.27
2024-01-29T18:57:44.787Z,20.60
2024-01-29T19:00:14.368Z,16.48
2024-01-29T19:02:44.536Z,16.85
2024-01-29T19:05:13.850Z,13.43
2024-01-29T19:07:43.257Z,14.30
2024-01-29T19:10:11.747Z,13.25
2024-01-29T19:12:39.729Z,16.02
2024-01-29T19:15:09.265Z,13.40
2024-01-29T19:17:38.922Z,16.45
2024-01-29T19:20:07.776Z,11.68
2024-01-29T19:22:36.240Z,16.65
2024-01-29T19:25:04.369Z,16.60
2024-01-29T19:27:32.254Z,14.70
2024-01-29T19:30:00.178Z,14.20
2024-01-29T19:32:28.856Z,13.48
2024-01-29T19:34:58.271Z,17.73
2024-01-29T19:37:28.740Z,13.13
2024-01-29T19:39:59.975Z,15.23
2024-01-29T19:42:29.996Z,14.27
2024-01-29T19:44:57.907Z,17.73
2024-01-29T19:47:25.811Z,12.45
2024-01-29T19:49:57.408Z,13.00
2024-01-29T19:52:28.666Z,14.55
2024-01-29T19:54:56.592Z,14.52
2024-01-29T19:57:24.517Z,14.27
2024-01-29T19:59:52.416Z,18.27
2024-01-29T20:02:20.446Z,17.45
2024-01-29T20:04:50.746Z,18.77
2024-01-29T20:07:18.875Z,20.42
2024-01-29T20:09:49.456Z,19.90
2024-01-29T20:12:19.173Z,20.13
2024-01-29T20:14:47.174Z,16.17
2024-01-29T20:17:15.010Z,15.77
2024-01-29T20:19:43.059Z,16.00
2024-01-29T20:22:11.358Z,16.00
2024-01-29T20:24:40.812Z,14.18
2024-01-29T20:27:10.080Z,15.98
2024-01-29T20:29:37.918Z,14.52
2024-01-29T20:32:06.236Z,12.63
2024-01-29T20:34:35.693Z,14.02
2024-01-29T20:37:03.757Z,15.68
2024-01-29T20:39:32.441Z,15.60
2024-01-29T20:42:00.368Z,21.80
2024-01-29T20:44:30.094Z,15.18
2024-01-29T20:46:57.985Z,16.15
2024-01-29T20:49:26.055Z,15.20
2024-01-29T20:51:56.586Z,15.07
2024-01-29T20:54:25.091Z,16.80
2024-01-29T20:56:56.568Z,14.57
2024-01-29T20:59:24.910Z,13.20
2024-01-29T21:01:54.300Z,15.23
2024-01-29T21:04:23.247Z,15.05
2024-01-29T21:06:52.953Z,15.30
2024-01-29T21:09:21.115Z,13.57
2024-01-29T21:11:49.063Z,15.05
2024-01-29T21:14:16.927Z,15.35
2024-01-29T21:16:44.850Z,12.32
2024-01-29T21:19:14.486Z,16.52
2024-01-29T21:21:44.369Z,13.32
2024-01-29T21:24:12.292Z,14.15
2024-01-29T21:26:40.153Z,13.30
2024-01-29T21:29:07.984Z,11.38
2024-01-29T21:31:35.847Z,13.02
2024-01-29T21:34:03.809Z,10.18
2024-01-29T21:36:33.165Z,12.95
2024-01-29T21:39:00.998Z,11.13
2024-01-29T21:41:28.814Z,11.63
2024-01-29T21:43:57.747Z,13.90
2024-01-29T21:46:26.059Z,13.90
2024-01-29T21:48:54.209Z,14.68
2024-01-29T21:51:22.242Z,12.80
2024-01-29T21:53:51.785Z,16.10
2024-01-29T21:56:19.783Z,19.85
2024-01-29T21:58:47.658Z,18.60
2024-01-29T22:01:15.702Z,18.08
2024-01-29T22:03:43.673Z,18.13
2024-01-29T22:06:11.756Z,17.35
2024-01-29T22:08:40.238Z,14.77
2024-01-29T22:11:09.390Z,13.85
2024-01-29T22:13:37.229Z,14.93
2024-01-29T22:16:05.525Z,14.40
2024-01-29T22:18:33.433Z,12.88
2024-01-29T22:21:03.006Z,13.88
2024-01-29T22:23:30.970Z,20.30
2024-01-29T22:25:58.792Z,20.88
2024-01-29T22:28:28.430Z,15.40
2024-01-29T22:30:57.951Z,14.95
2024-01-29T22:33:26.131Z,12.40
2024-01-29T22:35:54.379Z,14.95
2024-01-29T22:38:22.261Z,15.60
2024-01-29T22:40:50.090Z,19.33
2024-01-29T22:43:18.675Z,18.15
2024-01-29T22:45:48.043Z,16.00
2024-01-29T22:48:16.325Z,17.00
2024-01-29T22:50:44.203Z,12.10
2024-01-29T22:53:12.148Z,13.38
2024-01-29T22:55:40.008Z,18.25
2024-01-29T22:58:08.085Z,12.63
2024-01-29T23:00:35.989Z,11.57
2024-01-29T23:03:05.781Z,15.32
2024-01-29T23:05:33.970Z,16.30
2024-01-29T23:08:01.850Z,14.73
2024-01-29T23:10:29.712Z,13.27
2024-01-29T23:12:57.568Z,14.00
2024-01-29T23:15:25.550Z,15.45
2024-01-29T23:17:53.398Z,13.30
2024-01-29T23:20:23.164Z,16.30
2024-01-29T23:22:51.637Z,12.27
2024-01-29T23:25:19.605Z,20.48
2024-01-29T23:27:47.555Z,15.52
2024-01-29T23:30:15.608Z,11.60
2024-01-29T23:32:43.600Z,13.27
2024-01-29T23:35:11.466Z,14.23
2024-01-29T23:37:40.622Z,17.60
2024-01-29T23:40:09.366Z,17.02
2024-01-29T23:42:37.272Z,20.65
2024-01-29T23:45:06.354Z,15.45
2024-01-29T23:47:34.257Z,18.45
2024-01-29T23:50:02.251Z,17.85
2024-01-29T23:52:30.504Z,14.77
2024-01-29T23:54:59.898Z,18.65
2024-01-29T23:57:27.799Z,16.10
2024-01-29T23:59:55.701Z,14.85
